Time;durP1;ratioP1;P1;durP2;ratioP2;P2;SDS_P1;SDS_P2;PMS_P1;PMS_P2;Temp;Humidity;BMP_temperature;BMP_pressure;BME280_temperature;BME280_humidity;BME280_pressure;Samples;Min_cycle;Max_cycle;Signal;HPM_P1;HPM_P2
2022/12/24 00:00:28;;;;;;;56.80;28.93;;;;;;;5.72;100.00;99417.66;3495919;83;34823;-84
2022/12/24 00:05:29;;;;;;;54.45;26.17;;;;;;;5.71;100.00;99420.18;3489119;82;98367;-86
2022/12/24 00:10:29;;;;;;;52.40;25.07;;;;;;;5.68;100.00;99424.23;3495722;83;26282;-85
2022/12/24 00:15:30;;;;;;;50.13;24.10;;;;;;;5.65;100.00;99425.75;3489770;83;98382;-85
2022/12/24 00:20:31;;;;;;;44.40;23.27;;;;;;;5.62;100.00;99423.74;3496145;83;34437;-84
2022/12/24 00:25:32;;;;;;;41.87;20.07;;;;;;;5.62;100.00;99427.84;3488774;82;98752;-86
2022/12/24 00:30:33;;;;;;;42.20;19.20;;;;;;;5.63;100.00;99433.50;3497806;83;33365;-85
2022/12/24 00:35:36;;;;;;;38.33;18.43;;;;;;;5.63;100.00;99437.59;3491138;83;98520;-85
2022/12/24 00:40:37;;;;;;;35.03;17.17;;;;;;;5.61;100.00;99431.73;3496663;83;30677;-85
2022/12/24 00:45:38;;;;;;;34.80;17.53;;;;;;;5.58;100.00;99423.48;3511264;81;98420;-85
2022/12/24 00:50:39;;;;;;;33.83;16.93;;;;;;;5.57;100.00;99411.77;3523253;82;32520;-84
2022/12/24 00:55:39;;;;;;;30.03;15.30;;;;;;;5.60;100.00;99423.90;3517291;82;98405;-84
2022/12/24 01:00:40;;;;;;;30.47;15.63;;;;;;;5.57;100.00;99429.52;3524347;82;32523;-85
2022/12/24 01:05:41;;;;;;;29.70;15.10;;;;;;;5.56;100.00;99432.03;3516625;82;98401;-84
2022/12/24 01:10:41;;;;;;;33.70;16.17;;;;;;;5.56;100.00;99423.08;3524218;82;27438;-85
2022/12/24 01:15:42;;;;;;;35.00;15.43;;;;;;;5.56;100.00;99423.08;3490950;82;98572;-85
2022/12/24 01:20:44;;;;;;;33.50;15.67;;;;;;;5.55;100.00;99429.67;3523366;82;25868;-84
2022/12/24 01:25:45;;;;;;;30.43;13.40;;;;;;;5.54;100.00;99434.36;3517304;82;98780;-84
2022/12/24 01:30:47;;;;;;;30.97;14.47;;;;;;;5.52;100.00;99419.51;3524392;82;26629;-83
2022/12/24 01:35:47;;;;;;;30.57;13.40;;;;;;;5.50;100.00;99423.96;3516984;82;98638;-83
2022/12/24 01:46:19;;;;;;;24.55;11.70;;;;;;;5.48;100.00;99420.02;3514217;83;31668;-84
2022/12/24 01:51:42;;;;;;;26.68;12.07;;;;;;;5.44;100.00;99417.25;3506023;82;98573;-85
2022/12/24 01:56:52;;;;;;;22.13;11.18;;;;;;;5.44;100.00;99417.81;3513107;83;32776;-84
2022/12/24 02:01:53;;;;;;;23.55;11.28;;;;;;;5.44;100.00;99423.27;3507364;82;98935;-84
2022/12/24 02:06:54;;;;;;;23.70;11.93;;;;;;;5.42;100.00;99412.74;3513562;82;25793;-85
2022/12/24 02:11:56;;;;;;;21.83;10.70;;;;;;;5.40;100.00;99402.76;3506885;82;98825;-85
2022/12/24 02:17:11;;;;;;;21.43;11.70;;;;;;;5.37;100.00;99415.78;3514513;82;26463;-85
2022/12/24 02:22:38;;;;;;;20.90;10.95;;;;;;;5.33;100.00;99416.30;3505296;83;98895;-83
2022/12/24 02:28:20;;;;;;;19.02;9.88;;;;;;;5.31;100.00;99414.52;3511140;82;32561;-85
2022/12/24 02:33:38;;;;;;;21.97;11.78;;;;;;;5.29;100.00;99411.95;3505176;82;98837;-83
2022/12/24 02:38:50;;;;;;;22.75;11.00;;;;;;;5.26;100.00;99412.11;3511825;82;33176;-84
2022/12/24 02:43:54;;;;;;;18.65;10.08;;;;;;;5.26;100.00;99415.39;3505301;82;98822;-84
2022/12/24 02:48:57;;;;;;;20.72;10.95;;;;;;;5.25;100.00;99418.69;3514150;83;31571;-85
2022/12/24 02:53:58;;;;;;;24.52;11.53;;;;;;;5.21;100.00;99421.95;3507472;82;98676;-85
2022/12/24 02:59:26;;;;;;;27.10;12.53;;;;;;;5.22;100.00;99422.16;3514083;82;26093;-85
2022/12/24 03:04:44;;;;;;;24.18;13.18;;;;;;;5.22;100.00;99423.53;3503358;82;98461;-84
2022/12/24 03:10:16;;;;;;;26.07;12.88;;;;;;;5.20;100.00;99437.31;3512617;83;33088;-83
2022/12/24 03:15:21;;;;;;;29.53;13.13;;;;;;;5.17;100.00;99434.74;3508246;82;98600;-83
2022/12/24 03:20:27;;;;;;;27.97;12.67;;;;;;;5.14;100.00;99440.91;3513870;82;27367;-83
2022/12/24 03:25:28;;;;;;;30.23;14.40;;;;;;;5.14;100.00;99445.59;3507717;82;98649;-85
2022/12/24 03:30:30;;;;;;;30.50;14.30;;;;;;;5.13;100.00;99446.75;3513655;83;31907;-85
2022/12/24 03:35:30;;;;;;;33.60;14.67;;;;;;;5.11;100.00;99445.75;3507287;82;98545;-84
2022/12/24 03:40:33;;;;;;;34.50;16.17;;;;;;;5.07;100.00;99446.84;3510661;82;26407;-83
2022/12/24 03:45:34;;;;;;;32.20;15.10;;;;;;;5.04;100.00;99453.02;3504667;82;98739;-86
2022/12/24 03:50:35;;;;;;;31.53;13.93;;;;;;;5.01;100.00;99453.16;3512818;82;26454;-85
2022/12/24 03:55:37;;;;;;;33.23;15.67;;;;;;;5.00;100.00;99466.59;3507330;82;98536;-84
2022/12/24 04:00:38;;;;;;;33.13;16.13;;;;;;;4.97;100.00;99476.08;3512883;82;25841;-85
2022/12/24 04:05:39;;;;;;;35.10;15.33;;;;;;;4.97;100.00;99476.08;3506514;82;98612;-85
2022/12/24 04:10:39;;;;;;;35.30;15.63;;;;;;;4.95;100.00;99489.27;3513655;82;26219;-85
2022/12/24 04:15:40;;;;;;;37.17;14.90;;;;;;;4.91;100.00;99480.25;3507633;82;98606;-85
2022/12/24 04:20:41;;;;;;;33.00;13.93;;;;;;;4.92;100.00;99488.64;3512880;83;26484;-85
2022/12/24 04:25:42;;;;;;;38.90;16.47;;;;;;;4.91;100.00;99492.52;3507353;82;98603;-85
2022/12/24 04:30:43;;;;;;;37.13;17.47;;;;;;;4.88;100.00;99489.94;3513592;82;26300;-86
2022/12/24 04:35:44;;;;;;;39.08;16.37;;;;;;;4.88;100.00;99493.23;3506444;82;98487;-85
2022/12/24 04:40:44;;;;;;;38.90;17.10;;;;;;;4.85;100.00;99498.06;3513794;83;33873;-85
2022/12/24 04:45:45;;;;;;;35.60;15.13;;;;;;;4.82;100.00;99507.74;3506661;82;98615;-84
2022/12/24 04:50:46;;;;;;;37.37;15.73;;;;;;;4.81;100.00;99513.55;3512220;83;33117;-84
2022/12/24 04:55:47;;;;;;;38.23;16.63;;;;;;;4.80;100.00;99505.16;3507460;83;98713;-85
2022/12/24 05:00:47;;;;;;;37.33;15.40;;;;;;;4.77;100.00;99514.05;3393192;85;33298;-85
2022/12/24 05:05:48;;;;;;;37.80;17.83;;;;;;;4.76;100.00;99513.84;3384837;85;98557;-84
2022/12/24 05:10:57;;;;;;;35.90;16.40;;;;;;;4.72;100.00;99519.79;3393836;85;33179;-85
2022/12/24 05:15:58;;;;;;;39.13;16.13;;;;;;;4.70;100.00;99529.68;3392538;85;26376;-84
2022/12/24 05:20:58;;;;;;;38.13;16.43;;;;;;;4.69;100.00;99531.42;3387958;85;104740;-85
2022/12/24 05:31:21;;;;;;;37.23;16.73;;;;;;;4.67;100.00;99530.98;3387334;85;99026;-85
2022/12/24 05:36:22;;;;;;;37.67;17.30;;;;;;;4.65;100.00;99542.82;3393321;85;25925;-85
2022/12/24 05:41:24;;;;;;;35.40;17.37;;;;;;;4.65;100.00;99548.27;3387488;85;98865;-85
2022/12/24 05:46:25;;;;;;;35.53;16.67;;;;;;;4.63;100.00;99553.30;3380182;85;33211;-84
2022/12/24 05:51:25;;;;;;;31.73;13.97;;;;;;;4.61;100.00;99565.11;3365217;86;98663;-84
2022/12/24 05:56:26;;;;;;;27.90;13.80;;;;;;;4.58;100.00;99569.94;3368329;86;33195;-83
2022/12/24 06:01:27;;;;;;;27.95;12.95;;;;;;;4.56;100.00;99574.94;3364490;85;98888;-83
2022/12/24 06:06:28;;;;;;;25.07;11.67;;;;;;;4.55;100.00;99580.97;3368794;86;33250;-84
2022/12/24 06:11:29;;;;;;;25.63;12.20;;;;;;;4.51;100.00;99592.36;3365176;85;98951;-84
2022/12/24 06:16:30;;;;;;;25.33;11.97;;;;;;;4.51;100.00;99599.73;3371819;86;33296;-84
2022/12/24 06:21:30;;;;;;;22.43;11.40;;;;;;;4.47;100.00;99601.02;3364217;85;98826;-85
2022/12/24 06:26:31;;;;;;;28.73;13.07;;;;;;;4.46;100.00;99601.38;3371020;86;31600;-84
2022/12/24 06:31:32;;;;;;;23.03;11.53;;;;;;;4.43;100.00;99613.77;3364684;85;98866;-85
2022/12/24 06:36:33;;;;;;;26.77;12.00;;;;;;;4.43;100.00;99617.85;3370397;86;31661;-84
2022/12/24 06:41:34;;;;;;;24.05;10.88;;;;;;;4.40;100.00;99626.75;3364328;86;98791;-84
2022/12/24 06:46:34;;;;;;;24.50;10.90;;;;;;;4.38;100.00;99630.41;3368476;86;31661;-85
2022/12/24 06:51:35;;;;;;;24.53;12.20;;;;;;;4.38;100.00;99637.23;3360814;86;98924;-85
2022/12/24 06:56:36;;;;;;;26.00;13.43;;;;;;;4.38;100.00;99640.51;3369156;86;31816;-84
2022/12/24 07:01:37;;;;;;;28.00;13.33;;;;;;;4.36;100.00;99652.34;3363746;86;98910;-85
2022/12/24 07:06:38;;;;;;;36.80;17.07;;;;;;;4.32;100.00;99667.21;3369920;86;31317;-85
2022/12/24 07:11:38;;;;;;;35.73;15.63;;;;;;;4.35;100.00;99691.03;3364290;85;98497;-85
2022/12/24 07:16:39;;;;;;;38.23;18.23;;;;;;;4.34;100.00;99697.63;3359173;86;34908;-86
2022/12/24 07:21:40;;;;;;;34.58;16.45;;;;;;;4.30;100.00;99699.47;3366384;86;98781;-87
2022/12/24 07:26:41;;;;;;;28.53;15.53;;;;;;;4.27;100.00;99711.65;3370571;86;35644;-86
2022/12/24 07:31:42;;;;;;;30.17;14.97;;;;;;;4.27;100.00;99712.42;3362114;86;98857;-85
2022/12/24 07:36:43;;;;;;;33.10;14.87;;;;;;;4.26;100.00;99716.88;3372929;86;36035;-86
2022/12/24 07:41:43;;;;;;;29.27;15.03;;;;;;;4.30;100.00;99734.87;3365247;86;98669;-86
2022/12/24 07:46:44;;;;;;;33.75;15.85;;;;;;;4.30;100.00;99734.87;3368769;86;34851;-86
2022/12/24 07:51:45;;;;;;;30.93;14.63;;;;;;;4.32;100.00;99744.06;3363398;86;98799;-85
2022/12/24 07:56:48;;;;;;;34.13;15.63;;;;;;;4.32;100.00;99745.43;3368724;86;31102;-86
2022/12/24 08:01:48;;;;;;;37.28;15.98;;;;;;;4.30;100.00;99756.67;3360419;85;98982;-87
2022/12/24 08:06:49;;;;;;;33.80;16.10;;;;;;;4.30;100.00;99763.48;3356112;86;32489;-87
2022/12/24 08:11:50;;;;;;;35.13;17.23;;;;;;;4.32;100.00;99782.97;3360280;85;99311;-87
2022/12/24 08:16:51;;;;;;;34.73;17.30;;;;;;;4.36;100.00;99793.40;3362788;86;33597;-86
2022/12/24 08:21:51;;;;;;;34.20;15.87;;;;;;;4.40;100.00;99792.12;3358355;85;98647;-87
2022/12/24 08:26:52;;;;;;;36.00;16.90;;;;;;;4.42;100.00;99796.66;3352659;86;33641;-87
2022/12/24 08:31:53;;;;;;;34.27;15.77;;;;;;;4.43;100.00;99796.29;3356131;86;99085;-86
2022/12/24 08:36:54;;;;;;;32.90;16.23;;;;;;;4.50;100.00;99808.75;3364566;86;33619;-87
2022/12/24 08:41:55;;;;;;;33.03;16.83;;;;;;;4.52;100.00;99815.98;3359271;86;98892;-87
2022/12/24 08:46:55;;;;;;;37.73;17.03;;;;;;;4.56;100.00;99827.78;3365407;86;25935;-87
2022/12/24 08:51:56;;;;;;;34.53;16.13;;;;;;;4.55;100.00;99836.30;3357620;86;98753;-86
2022/12/24 08:56:57;;;;;;;38.20;15.80;;;;;;;4.57;100.00;99834.00;3368550;86;26490;-87
2022/12/24 09:01:58;;;;;;;33.17;15.37;;;;;;;4.61;100.00;99847.15;3362661;85;98535;-89
2022/12/24 09:06:59;;;;;;;31.70;15.23;;;;;;;4.57;100.00;99849.79;3369245;86;26160;-89
2022/12/24 09:12:00;;;;;;;35.73;15.83;;;;;;;4.62;100.00;99848.17;3363545;86;98886;-89
2022/12/24 09:17:01;;;;;;;34.37;15.37;;;;;;;4.63;100.00;99856.56;3368117;86;26844;-89
2022/12/24 09:22:01;;;;;;;35.40;15.00;;;;;;;4.64;100.00;99855.41;3363264;86;98895;-88
2022/12/24 09:27:03;;;;;;;34.27;14.37;;;;;;;4.66;100.00;99862.69;3370410;86;33714;-89
2022/12/24 09:32:04;;;;;;;31.03;14.97;;;;;;;4.69;100.00;99863.33;3363501;85;98991;-86
2022/12/24 09:37:05;;;;;;;36.40;16.80;;;;;;;4.73;100.00;99872.95;3365990;86;33720;-86
2022/12/24 09:42:23;;;;;;;33.90;14.38;;;;;;;4.76;100.00;99882.58;3363776;86;99097;-87
2022/12/24 09:47:32;;;;;;;34.13;15.73;;;;;;;4.78;100.00;99885.77;3388499;85;26257;-87
2022/12/24 09:52:38;;;;;;;35.50;18.00;;;;;;;4.82;100.00;99890.74;3401495;85;98787;-86
2022/12/24 09:57:41;;;;;;;38.63;17.85;;;;;;;4.89;100.00;99898.28;3408435;85;26702;-86
2022/12/24 10:02:41;;;;;;;39.10;20.43;;;;;;;4.92;100.00;99898.95;3404957;85;98790;-87
2022/12/24 10:07:54;;;;;;;37.33;19.37;;;;;;;5.00;100.00;99910.24;3409996;85;33820;-87
2022/12/24 10:13:30;;;;;;;43.40;21.57;;;;;;;5.03;100.00;99908.97;3402522;85;98808;-88
2022/12/24 10:19:00;;;;;;;32.90;16.17;;;;;;;5.01;100.00;99919.44;3409932;85;26078;-89
2022/12/24 10:24:22;;;;;;;33.70;18.47;;;;;;;5.07;100.00;99940.44;3404793;85;98799;-87
2022/12/24 10:29:28;;;;;;;34.37;17.70;;;;;;;5.07;100.00;99941.80;3409275;85;26011;-88
2022/12/24 10:34:43;;;;;;;35.63;15.97;;;;;;;5.07;100.00;99944.53;3399431;85;98808;-87
2022/12/24 10:39:44;;;;;;;41.23;16.93;;;;;;;5.13;100.00;99950.70;3401204;85;26213;-91
2022/12/24 10:44:49;;;;;;;34.97;17.33;;;;;;;5.19;100.00;99956.12;3404302;85;98681;-89
2022/12/24 10:50:07;;;;;;;33.53;17.47;;;;;;;5.27;100.00;99974.27;3408535;85;26605;-87
2022/12/24 10:55:23;;;;;;;33.55;15.83;;;;;;;5.25;100.00;99973.80;3399572;85;98991;-87
2022/12/24 11:00:24;;;;;;;30.10;15.03;;;;;;;5.29;100.00;99973.91;3408314;85;25892;-87
2022/12/24 11:05:34;;;;;;;31.57;15.70;;;;;;;5.28;100.00;99985.95;3403383;85;98672;-87
2022/12/24 11:10:40;;;;;;;31.40;15.37;;;;;;;5.26;100.00;99989.61;3411297;84;26442;-87
2022/12/24 11:15:41;;;;;;;34.30;18.70;;;;;;;5.30;100.00;99987.18;3400774;85;98890;-85
2022/12/24 11:20:47;;;;;;;33.83;17.33;;;;;;;5.35;100.00;99991.02;3409065;85;33230;-87
2022/12/24 11:25:50;;;;;;;39.03;21.12;;;;;;;5.44;100.00;99997.09;3402288;85;98513;-86
2022/12/24 11:31:08;;;;;;;35.07;17.27;;;;;;;5.52;100.00;99996.69;3407524;85;26282;-86
2022/12/24 11:36:12;;;;;;;36.33;19.53;;;;;;;5.60;100.00;100006.63;3406420;85;33245;-87
2022/12/24 11:41:13;;;;;;;72.57;33.20;;;;;;;5.65;100.00;100003.63;3399613;85;99185;-87
2022/12/24 11:46:28;;;;;;;36.43;19.20;;;;;;;5.61;100.00;100015.02;3412199;85;33389;-87
2022/12/24 11:51:31;;;;;;;32.20;17.17;;;;;;;5.59;100.00;100024.15;3402113;85;98728;-88
2022/12/24 11:56:38;;;;;;;32.93;16.23;;;;;;;5.59;100.00;100024.15;3392683;85;26107;-87
2022/12/24 12:01:47;;;;;;;31.97;17.15;;;;;;;5.55;100.00;100031.45;3413664;85;98840;-87
2022/12/24 12:06:59;;;;;;;32.15;15.60;;;;;;;5.51;100.00;100038.78;3457252;84;26055;-88
2022/12/24 12:12:23;;;;;;;31.93;16.12;;;;;;;5.49;100.00;100041.05;3392032;85;98803;-87
2022/12/24 12:17:42;;;;;;;31.47;16.43;;;;;;;5.40;100.00;100052.73;3458201;84;25930;-87
2022/12/24 12:22:54;;;;;;;30.33;16.73;;;;;;;5.40;100.00;100058.97;3452190;83;98768;-87
2022/12/24 12:27:57;;;;;;;32.10;16.97;;;;;;;5.44;100.00;100061.22;3461548;84;26569;-87
2022/12/24 12:33:37;;;;;;;35.60;17.33;;;;;;;5.45;100.00;100051.88;3450563;83;99314;-86
2022/12/24 12:38:39;;;;;;;30.33;17.87;;;;;;;5.55;100.00;100063.64;3411050;84;33283;-87
2022/12/24 12:44:05;;;;;;;31.80;18.30;;;;;;;5.53;100.00;100064.58;3452754;84;98692;-86
2022/12/24 12:49:36;;;;;;;40.57;21.80;;;;;;;5.46;100.00;100067.11;3450498;84;26250;-86
2022/12/24 12:54:59;;;;;;;37.90;20.87;;;;;;;5.41;100.00;100063.27;3437672;84;99206;-86
2022/12/24 13:00:11;;;;;;;36.97;20.80;;;;;;;5.38;100.00;100080.36;3443428;84;26412;-87
2022/12/24 13:05:39;;;;;;;38.20;20.02;;;;;;;5.30;100.00;100085.98;3436829;83;98907;-88
2022/12/24 13:11:00;;;;;;;35.57;18.70;;;;;;;5.37;100.00;100106.62;3385673;86;33303;-88
2022/12/24 13:16:15;;;;;;;35.90;17.87;;;;;;;5.34;100.00;100112.21;3474465;83;34414;-88
2022/12/24 13:21:24;;;;;;;32.17;17.60;;;;;;;5.38;100.00;100119.94;3480688;82;99095;-87
2022/12/24 13:26:25;;;;;;;34.27;19.77;;;;;;;5.37;100.00;100119.72;3487545;83;26028;-87
2022/12/24 13:31:27;;;;;;;34.93;19.70;;;;;;;5.38;100.00;100129.48;3480020;83;98942;-88
2022/12/24 13:36:46;;;;;;;38.37;22.17;;;;;;;5.37;100.00;100131.19;3488431;83;26453;-87
2022/12/24 13:41:49;;;;;;;45.00;25.47;;;;;;;5.34;100.00;100139.50;3462035;82;99092;-88
2022/12/24 13:47:20;;;;;;;40.93;23.03;;;;;;;5.30;100.00;100133.14;3483464;83;25968;-87
2022/12/24 13:52:27;;;;;;;34.43;18.85;;;;;;;5.27;100.00;100135.22;3487441;83;99148;-87
2022/12/24 13:57:58;;;;;;;38.40;19.60;;;;;;;5.23;100.00;100136.28;3497915;83;25787;-85
2022/12/24 14:03:17;;;;;;;37.45;20.60;;;;;;;5.21;100.00;100134.45;3488979;82;99134;-86
2022/12/24 14:08:32;;;;;;;64.30;31.63;;;;;;;5.19;100.00;100140.84;3492274;83;26420;-86
2022/12/24 14:13:47;;;;;;;115.10;40.40;;;;;;;5.27;100.00;100154.32;3486473;82;98846;-86
2022/12/24 14:19:22;;;;;;;61.83;29.30;;;;;;;5.26;100.00;100157.39;3492523;83;25771;-85
2022/12/24 14:24:27;;;;;;;38.10;20.77;;;;;;;5.26;100.00;100153.30;3485402;83;98509;-86
2022/12/24 14:29:32;;;;;;;40.77;21.70;;;;;;;5.15;100.00;100167.22;3492248;83;25877;-85
2022/12/24 14:34:33;;;;;;;40.75;21.23;;;;;;;5.09;100.00;100184.97;3483843;83;98535;-86
2022/12/24 14:39:39;;;;;;;39.73;21.43;;;;;;;4.99;100.00;100179.44;3486880;83;33708;-85
2022/12/24 14:45:09;;;;;;;68.02;29.57;;;;;;;5.02;100.00;100186.14;3490558;82;98893;-85
2022/12/24 14:50:44;;;;;;;47.10;24.27;;;;;;;5.02;100.00;100206.59;3495445;83;26187;-85
2022/12/24 14:55:48;;;;;;;39.13;21.30;;;;;;;5.04;100.00;100203.74;3488749;82;98944;-86
2022/12/24 15:00:51;;;;;;;59.43;26.87;;;;;;;4.99;100.00;100218.17;3491618;83;26481;-85
2022/12/24 15:06:03;;;;;;;39.67;21.40;;;;;;;4.92;100.00;100228.30;3468246;83;99027;-85
2022/12/24 15:11:08;;;;;;;33.50;19.33;;;;;;;4.91;100.00;100233.53;3486018;83;99090;-85
2022/12/24 15:16:13;;;;;;;38.20;20.40;;;;;;;4.86;100.00;100240.58;3492769;83;26073;-84
2022/12/24 15:21:22;;;;;;;35.70;18.93;;;;;;;4.84;100.00;100239.33;3489596;83;99031;-84
2022/12/24 15:26:35;;;;;;;208.50;71.37;;;;;;;4.77;100.00;100238.56;3494164;83;26389;-83
2022/12/24 15:31:35;;;;;;;45.05;22.52;;;;;;;4.78;100.00;100248.33;3487079;83;99307;-84
2022/12/24 15:36:36;;;;;;;43.43;20.80;;;;;;;4.74;100.00;100252.87;3492946;83;33216;-84
2022/12/24 15:47:14;;;;;;;68.93;31.90;;;;;;;4.67;100.00;100267.64;3492989;83;26302;-84
2022/12/24 15:52:20;;;;;;;75.60;32.47;;;;;;;4.66;100.00;100276.16;3487723;83;99043;-85
2022/12/24 15:57:26;;;;;;;65.43;29.00;;;;;;;4.66;100.00;100289.23;3495572;83;25743;-84
2022/12/24 16:02:37;;;;;;;98.55;39.92;;;;;;;4.70;100.00;100290.11;3484157;83;99004;-84
2022/12/24 16:08:06;;;;;;;110.73;44.17;;;;;;;4.72;100.00;100302.05;3492078;84;27425;-84
2022/12/24 16:12:46;;;;;;;82.67;34.67;;;;;;;4.75;100.00;100323.19;3483659;83;98984;-85
2022/12/24 16:17:48;;;;;;;57.53;29.43;;;;;;;4.75;100.00;100314.42;3496154;83;33171;-84
2022/12/24 16:22:50;;;;;;;59.30;32.37;;;;;;;4.75;100.00;100317.16;3488920;82;99004;-85
2022/12/24 16:27:51;;;;;;;62.93;32.60;;;;;;;4.75;100.00;100324.55;3495864;83;33218;-85
2022/12/24 16:32:52;;;;;;;59.70;32.40;;;;;;;4.73;100.00;100330.89;3489473;82;99097;-85
2022/12/24 16:37:54;;;;;;;45.57;26.53;;;;;;;4.68;100.00;100322.94;3495583;83;33248;-85
2022/12/24 16:48:24;;;;;;;59.03;30.03;;;;;;;4.60;100.00;100321.13;3489902;84;26363;-85
2022/12/24 16:53:24;;;;;;;71.00;31.90;;;;;;;4.55;100.00;100318.07;3461581;83;99088;-85
2022/12/24 16:58:25;;;;;;;86.60;34.90;;;;;;;4.56;100.00;100322.94;3471252;84;33926;-85
2022/12/24 17:03:26;;;;;;;56.93;28.53;;;;;;;4.54;100.00;100330.66;3464876;83;98798;-85
2022/12/24 17:08:27;;;;;;;98.50;47.33;;;;;;;4.47;100.00;100333.94;3468964;83;33733;-85
2022/12/24 17:13:27;;;;;;;71.63;33.53;;;;;;;4.48;100.00;100337.47;3465480;83;99255;-85
2022/12/24 17:18:28;;;;;;;81.93;38.03;;;;;;;4.46;100.00;100353.34;3473337;83;33135;-86
2022/12/24 17:23:29;;;;;;;76.57;38.07;;;;;;;4.47;100.00;100357.10;3348924;86;98962;-85
2022/12/24 17:28:30;;;;;;;61.07;31.63;;;;;;;4.41;100.00;100357.65;3471072;84;31299;-85
2022/12/24 17:33:31;;;;;;;63.50;31.57;;;;;;;4.37;100.00;100358.89;3463562;83;98814;-85
2022/12/24 17:38:31;;;;;;;59.13;31.37;;;;;;;4.39;100.00;100363.45;3470955;84;31647;-85
2022/12/24 17:43:37;;;;;;;70.08;35.65;;;;;;;4.39;100.00;100372.19;3465197;82;98907;-85
2022/12/24 17:48:38;;;;;;;73.95;37.45;;;;;;;4.34;100.00;100388.19;3472100;83;33400;-85
2022/12/24 17:53:41;;;;;;;69.80;33.97;;;;;;;4.37;100.00;100384.00;3486174;83;98986;-85
2022/12/24 17:58:44;;;;;;;75.65;35.43;;;;;;;4.43;100.00;100387.52;3495375;83;32714;-85
2022/12/24 18:03:48;;;;;;;69.47;35.50;;;;;;;4.45;100.00;100396.16;3488586;82;99050;-85
2022/12/24 18:08:50;;;;;;;78.15;36.83;;;;;;;4.38;100.00;100394.56;3495806;83;33842;-85
2022/12/24 18:13:51;;;;;;;68.50;34.10;;;;;;;4.36;100.00;100396.03;3490922;83;99098;-84
2022/12/24 18:18:53;;;;;;;73.20;35.88;;;;;;;4.36;100.00;100406.34;3479032;84;32077;-85
2022/12/24 18:23:55;;;;;;;65.08;35.03;;;;;;;4.34;100.00;100414.07;3489274;83;98954;-86
2022/12/24 18:28:58;;;;;;;96.60;49.27;;;;;;;4.38;100.00;100411.47;3496064;83;31688;-85
2022/12/24 18:34:01;;;;;;;76.00;38.83;;;;;;;4.33;100.00;100423.37;3487080;82;99314;-85
2022/12/24 18:39:02;;;;;;;71.80;36.30;;;;;;;4.29;100.00;100417.00;3496895;83;28506;-86
2022/12/24 18:44:04;;;;;;;68.93;35.73;;;;;;;4.28;100.00;100430.95;3488717;82;99116;-86
2022/12/24 18:49:04;;;;;;;75.47;37.07;;;;;;;4.27;100.00;100434.23;3496762;83;31706;-87
2022/12/24 18:54:05;;;;;;;78.20;42.30;;;;;;;4.27;100.00;100419.83;3490858;83;99022;-87
2022/12/24 18:59:06;;;;;;;87.40;42.90;;;;;;;4.30;100.00;100416.42;3495777;83;31923;-87
2022/12/24 19:04:07;;;;;;;86.07;38.73;;;;;;;4.25;100.00;100424.24;3487958;83;99145;-87
2022/12/24 19:09:09;;;;;;;86.57;39.33;;;;;;;4.25;100.00;100424.24;3496283;83;32252;-87
2022/12/24 19:14:12;;;;;;;83.33;38.67;;;;;;;4.28;100.00;100435.84;3490084;83;99066;-86
2022/12/24 19:19:12;;;;;;;83.10;37.83;;;;;;;4.36;100.00;100443.71;3496371;83;31566;-87
2022/12/24 19:24:14;;;;;;;85.50;41.40;;;;;;;4.41;100.00;100447.56;3488503;82;99143;-87
2022/12/24 19:29:14;;;;;;;85.07;40.60;;;;;;;4.37;100.00;100459.70;3495177;83;31609;-86
2022/12/24 19:34:15;;;;;;;81.10;39.83;;;;;;;4.42;100.00;100459.49;3488031;82;98976;-87
2022/12/24 19:39:16;;;;;;;83.00;38.77;;;;;;;4.42;100.00;100459.49;3492466;83;32220;-87
2022/12/24 19:44:17;;;;;;;85.40;38.60;;;;;;;4.44;100.00;100450.99;3487783;83;98839;-87
2022/12/24 19:49:18;;;;;;;85.67;40.97;;;;;;;4.40;100.00;100464.49;3496127;83;30563;-87
2022/12/24 19:54:19;;;;;;;78.13;35.87;;;;;;;4.45;100.00;100474.37;3489661;83;99002;-87
2022/12/24 19:59:19;;;;;;;88.30;39.80;;;;;;;4.48;100.00;100481.31;3491722;83;35400;-87
2022/12/24 20:04:20;;;;;;;88.40;39.33;;;;;;;4.52;100.00;100485.52;3485388;83;99009;-87
2022/12/24 20:09:21;;;;;;;97.10;40.20;;;;;;;4.53;100.00;100488.50;3475183;83;35401;-87
2022/12/24 20:14:22;;;;;;;82.83;37.50;;;;;;;4.55;100.00;100502.03;3491075;83;98901;-87
2022/12/24 20:19:23;;;;;;;88.90;39.00;;;;;;;4.58;100.00;100504.65;3493855;83;35400;-87
2022/12/24 20:24:23;;;;;;;92.45;39.08;;;;;;;4.58;100.00;100503.28;3489496;82;98852;-87
2022/12/24 20:29:24;;;;;;;93.83;41.70;;;;;;;4.58;100.00;100504.06;3496184;84;34791;-87
2022/12/24 20:34:25;;;;;;;93.72;39.70;;;;;;;4.61;100.00;100503.41;3489258;83;98928;-85
2022/12/24 20:39:26;;;;;;;89.20;35.30;;;;;;;4.65;100.00;100517.16;3495817;83;32534;-87
2022/12/24 20:44:27;;;;;;;95.97;39.87;;;;;;;4.65;100.00;100509.77;3489903;82;98884;-85
2022/12/24 20:49:28;;;;;;;94.23;40.50;;;;;;;4.68;100.00;100509.11;3494896;83;33018;-88
2022/12/24 20:54:29;;;;;;;110.67;43.57;;;;;;;4.68;100.00;100506.93;3488811;82;98867;-85
2022/12/24 20:59:30;;;;;;;101.10;41.27;;;;;;;4.70;100.00;100512.87;3493079;83;33005;-86
2022/12/24 21:04:31;;;;;;;99.10;41.40;;;;;;;4.72;100.00;100518.77;3490223;83;98836;-85
2022/12/24 21:09:31;;;;;;;102.77;43.37;;;;;;;4.72;100.00;100522.30;3494071;84;32426;-86
2022/12/24 21:14:32;;;;;;;104.67;46.17;;;;;;;4.72;100.00;100515.48;3490940;83;98955;-85
2022/12/24 21:19:33;;;;;;;103.57;43.63;;;;;;;4.75;100.00;100518.11;3496810;83;32440;-85
2022/12/24 21:24:34;;;;;;;96.32;42.90;;;;;;;4.76;100.00;100513.66;3490020;82;98954;-85
2022/12/24 21:29:35;;;;;;;103.73;42.30;;;;;;;4.77;100.00;100508.47;3495141;83;27563;-85
2022/12/24 21:34:36;;;;;;;93.50;40.43;;;;;;;4.80;100.00;100505.63;3489601;82;99101;-85
2022/12/24 21:39:37;;;;;;;95.83;42.90;;;;;;;4.80;100.00;100517.31;3494978;83;26200;-85
2022/12/24 21:44:38;;;;;;;100.50;44.37;;;;;;;4.80;100.00;100520.05;3488467;83;98846;-85
2022/12/24 21:54:57;;;;;;;98.20;43.10;;;;;;;4.81;100.00;100520.27;3451739;82;98691;-86
2022/12/24 22:00:20;;;;;;;107.07;45.50;;;;;;;4.83;100.00;100513.12;3459564;84;26563;-86
2022/12/24 22:05:02;;;;;;;101.78;45.23;;;;;;;4.84;100.00;100524.25;3449261;84;99076;-85
2022/12/24 22:15:23;;;;;;;82.77;41.10;;;;;;;4.83;100.00;100525.39;3454217;84;99029;-85
2022/12/24 22:20:24;;;;;;;99.53;42.83;;;;;;;4.84;100.00;100537.33;3460443;84;26544;-86
2022/12/24 22:25:25;;;;;;;99.13;42.57;;;;;;;4.89;100.00;100539.05;3453587;82;98878;-86
2022/12/24 22:30:26;;;;;;;97.90;43.40;;;;;;;4.90;100.00;100545.53;3458418;84;26492;-86
2022/12/24 22:35:27;;;;;;;95.57;42.63;;;;;;;4.92;100.00;100547.92;3456362;84;98875;-85
2022/12/24 22:40:28;;;;;;;94.00;43.10;;;;;;;4.96;100.00;100563.27;3462356;84;25787;-86
2022/12/24 22:45:29;;;;;;;92.63;41.43;;;;;;;5.00;100.00;100567.48;3455412;84;98820;-85
2022/12/24 22:50:30;;;;;;;108.47;46.60;;;;;;;5.02;100.00;100571.47;3462995;84;26227;-85
2022/12/24 22:55:30;;;;;;;110.40;50.43;;;;;;;5.04;100.00;100571.14;3489276;83;98984;-86
2022/12/24 23:00:44;;;;;;;90.53;42.60;;;;;;;5.05;100.00;100586.37;3494947;83;26029;-86
2022/12/24 23:05:45;;;;;;;96.90;45.00;;;;;;;5.06;100.00;100581.14;3490071;83;98896;-86
2022/12/24 23:10:45;;;;;;;102.83;44.97;;;;;;;5.04;100.00;100583.41;3497693;83;33286;-86
2022/12/24 23:15:46;;;;;;;102.57;44.80;;;;;;;5.06;100.00;100597.50;3491581;83;98957;-87
2022/12/24 23:20:47;;;;;;;123.47;60.10;;;;;;;5.09;100.00;100606.39;3497990;83;33744;-86
2022/12/24 23:25:48;;;;;;;107.17;48.67;;;;;;;5.09;100.00;100605.84;3492022;83;98827;-86
2022/12/24 23:30:57;;;;;;;116.70;51.73;;;;;;;5.15;100.00;100624.14;3497518;83;33245;-86
2022/12/24 23:35:58;;;;;;;100.10;43.67;;;;;;;5.19;100.00;100638.72;3497295;83;26231;-86
2022/12/24 23:41:03;;;;;;;100.87;42.70;;;;;;;5.21;100.00;100648.71;3491748;82;99284;-85